createdAt,value
2016-12-28T00:00:19.886Z,0
2016-12-28T00:01:34.202Z,0
2016-12-28T00:02:48.728Z,0
2016-12-28T00:04:03.231Z,0
2016-12-28T00:05:17.753Z,0
2016-12-28T00:06:33.506Z,0
2016-12-28T00:07:48.918Z,0
2016-12-28T00:09:03.278Z,0
2016-12-28T00:10:17.512Z,0
2016-12-28T00:11:32.096Z,0
2016-12-28T00:12:47.883Z,0
2016-12-28T00:14:03.658Z,0
2016-12-28T00:15:18.769Z,0
2016-12-28T00:16:33.263Z,0
2016-12-28T00:17:48.175Z,0
2016-12-28T00:19:04.006Z,0
2016-12-28T00:20:18.402Z,0
2016-12-28T00:21:32.958Z,0
2016-12-28T00:22:47.752Z,0
2016-12-28T00:24:17.613Z,0
2016-12-28T00:25:32.857Z,0
2016-12-28T00:26:47.749Z,0
2016-12-28T00:28:03.040Z,0
2016-12-28T00:29:18.163Z,0
2016-12-28T00:30:33.812Z,0
2016-12-28T00:31:48.545Z,0
2016-12-28T00:33:04.571Z,0
2016-12-28T00:34:19.677Z,0
2016-12-28T00:35:34.670Z,0
2016-12-28T00:36:49.527Z,0
2016-12-28T00:38:05.011Z,0
2016-12-28T00:39:19.258Z,0
2016-12-28T00:40:33.968Z,0
2016-12-28T00:41:48.667Z,0
2016-12-28T00:43:03.146Z,0
2016-12-28T00:44:18.675Z,0
2016-12-28T00:45:34.357Z,0
2016-12-28T00:46:49.506Z,0
2016-12-28T00:48:04.138Z,0
2016-12-28T00:49:18.944Z,0
2016-12-28T00:50:33.896Z,0
2016-12-28T00:51:48.189Z,0
2016-12-28T00:53:02.952Z,0
2016-12-28T00:54:17.595Z,0
2016-12-28T00:55:32.485Z,0
2016-12-28T00:56:47.431Z,0
2016-12-28T00:58:02.038Z,0
2016-12-28T00:59:16.189Z,0
2016-12-28T01:00:32.079Z,0
2016-12-28T01:01:46.834Z,0
2016-12-28T01:03:02.404Z,0
2016-12-28T01:04:16.862Z,0
2016-12-28T01:05:31.552Z,0
2016-12-28T01:06:46.387Z,0
2016-12-28T01:08:00.970Z,0
2016-12-28T01:09:15.759Z,0
2016-12-28T01:10:29.983Z,0
2016-12-28T01:11:44.798Z,0
2016-12-28T01:12:59.464Z,0
2016-12-28T01:14:13.544Z,0
2016-12-28T01:15:28.409Z,0
2016-12-28T01:16:42.778Z,0
2016-12-28T01:17:59.716Z,0
2016-12-28T01:19:13.756Z,0
2016-12-28T01:20:29.473Z,0
2016-12-28T01:21:43.956Z,0
2016-12-28T01:22:58.538Z,0
2016-12-28T01:24:12.968Z,0
2016-12-28T01:25:27.514Z,0
2016-12-28T01:26:43.278Z,0
2016-12-28T01:27:58.107Z,0
2016-12-28T01:29:12.160Z,0
2016-12-28T01:30:26.311Z,0
2016-12-28T01:31:40.874Z,0
2016-12-28T01:32:55.272Z,0
2016-12-28T01:34:10.849Z,0
2016-12-28T01:35:25.624Z,0
2016-12-28T01:36:40.085Z,0
2016-12-28T01:37:54.606Z,0
2016-12-28T01:39:09.553Z,0
2016-12-28T01:40:24.123Z,0
2016-12-28T01:41:38.667Z,0
2016-12-28T01:43:08.468Z,0
2016-12-28T01:44:22.519Z,0
2016-12-28T01:45:37.512Z,0
2016-12-28T01:46:52.037Z,0
2016-12-28T01:48:06.749Z,0
2016-12-28T01:49:21.276Z,0
2016-12-28T01:50:36.277Z,0
2016-12-28T01:51:50.700Z,0
2016-12-28T01:53:05.284Z,0
2016-12-28T01:54:20.742Z,0
2016-12-28T01:55:35.271Z,0
2016-12-28T01:56:49.763Z,0
2016-12-28T01:58:04.568Z,0
2016-12-28T01:59:19.585Z,0
2016-12-28T02:00:34.420Z,0
2016-12-28T02:01:48.544Z,0
2016-12-28T02:03:03.509Z,0
2016-12-28T02:04:18.731Z,0
2016-12-28T02:05:33.085Z,0
2016-12-28T02:06:47.167Z,0
2016-12-28T02:08:01.203Z,0
2016-12-28T02:09:15.315Z,0
2016-12-28T02:10:29.905Z,0
2016-12-28T02:11:44.265Z,0
2016-12-28T02:12:58.551Z,0
2016-12-28T02:14:12.649Z,0
2016-12-28T02:15:26.767Z,0
2016-12-28T02:16:41.423Z,0
2016-12-28T02:17:55.751Z,0
2016-12-28T02:19:09.839Z,0
2016-12-28T02:20:24.144Z,0
2016-12-28T02:21:38.711Z,0
2016-12-28T02:22:54.177Z,0
2016-12-28T02:24:08.860Z,0
2016-12-28T02:25:23.514Z,0
2016-12-28T02:26:37.885Z,0
2016-12-28T02:27:52.975Z,0
2016-12-28T02:29:07.719Z,0
2016-12-28T02:30:22.071Z,0
2016-12-28T02:31:36.344Z,0
2016-12-28T02:32:50.685Z,0
2016-12-28T02:34:05.178Z,0
2016-12-28T02:35:22.142Z,0
2016-12-28T02:36:36.605Z,0
2016-12-28T02:37:51.190Z,0
2016-12-28T02:39:05.593Z,0
2016-12-28T02:40:20.007Z,0
2016-12-28T02:41:34.354Z,0
2016-12-28T02:42:48.941Z,0
2016-12-28T02:44:03.589Z,0
2016-12-28T02:45:18.207Z,0
2016-12-28T02:46:32.534Z,0
2016-12-28T02:47:46.892Z,0
2016-12-28T02:49:00.937Z,0
2016-12-28T02:50:15.271Z,0
2016-12-28T02:51:29.441Z,0
2016-12-28T02:52:44.529Z,0
2016-12-28T02:53:58.938Z,0
2016-12-28T02:55:13.303Z,0
2016-12-28T02:56:27.377Z,0
2016-12-28T02:57:41.417Z,0
2016-12-28T02:58:55.762Z,0
2016-12-28T03:00:10.128Z,0
2016-12-28T03:01:25.219Z,0
2016-12-28T03:02:39.621Z,0
2016-12-28T03:03:53.722Z,0
2016-12-28T03:05:07.813Z,0
2016-12-28T03:06:22.509Z,0
2016-12-28T03:07:36.892Z,0
2016-12-28T03:08:51.233Z,0
2016-12-28T03:10:05.573Z,0
2016-12-28T03:11:20.292Z,0
2016-12-28T03:12:34.600Z,0
2016-12-28T03:13:48.990Z,0
2016-12-28T03:15:03.061Z,0
2016-12-28T03:16:17.687Z,0
2016-12-28T03:17:31.803Z,0
2016-12-28T03:18:46.811Z,0
2016-12-28T03:20:01.167Z,0
2016-12-28T03:21:15.538Z,0
2016-12-28T03:23:58.688Z,0
2016-12-28T03:25:13.614Z,0
2016-12-28T03:26:28.258Z,0
2016-12-28T03:27:42.762Z,0
2016-12-28T03:28:56.812Z,0
2016-12-28T03:30:11.477Z,0
2016-12-28T03:31:26.229Z,0
2016-12-28T03:32:40.310Z,0
2016-12-28T03:33:54.625Z,0
2016-12-28T03:35:08.852Z,0
2016-12-28T03:36:23.789Z,0
2016-12-28T03:37:37.914Z,0
2016-12-28T03:38:52.269Z,0
2016-12-28T03:40:06.679Z,0
2016-12-28T03:41:20.777Z,0
2016-12-28T03:42:35.372Z,0
2016-12-28T03:43:49.584Z,0
2016-12-28T03:45:03.693Z,0
2016-12-28T03:46:18.000Z,0
2016-12-28T03:47:32.094Z,0
2016-12-28T03:48:46.442Z,0
2016-12-28T03:50:00.849Z,0
2016-12-28T03:51:15.263Z,0
2016-12-28T03:52:31.815Z,0
2016-12-28T03:53:46.018Z,0
2016-12-28T03:55:00.561Z,0
2016-12-28T03:56:14.633Z,0
2016-12-28T03:57:29.432Z,0
2016-12-28T03:58:43.624Z,0
2016-12-28T03:59:58.071Z,0
2016-12-28T04:01:13.025Z,0
2016-12-28T04:02:27.983Z,0
2016-12-28T04:03:42.100Z,0
2016-12-28T04:04:56.562Z,0
2016-12-28T04:06:11.126Z,0
2016-12-28T04:07:25.428Z,0
2016-12-28T04:08:40.264Z,0
2016-12-28T04:09:54.767Z,0
2016-12-28T04:11:23.823Z,0
2016-12-28T04:12:38.130Z,0
2016-12-28T04:13:53.043Z,0
2016-12-28T04:15:07.558Z,0
2016-12-28T04:17:51.258Z,0
2016-12-28T04:19:05.342Z,0
2016-12-28T04:20:19.663Z,0
2016-12-28T04:21:34.742Z,0
2016-12-28T04:22:48.816Z,0
2016-12-28T04:24:03.194Z,0
2016-12-28T04:25:17.262Z,0
2016-12-28T04:26:31.933Z,0
2016-12-28T04:27:46.004Z,0
2016-12-28T04:29:00.479Z,0
2016-12-28T04:30:14.850Z,0
2016-12-28T04:31:29.924Z,0
2016-12-28T04:32:44.623Z,0
2016-12-28T04:33:58.906Z,0
2016-12-28T04:35:13.194Z,0
2016-12-28T04:36:27.316Z,0
2016-12-28T04:37:41.490Z,0
2016-12-28T04:38:55.863Z,0
2016-12-28T04:40:09.920Z,0
2016-12-28T04:41:24.073Z,0
2016-12-28T04:42:38.708Z,0
2016-12-28T04:43:53.665Z,0
2016-12-28T04:45:08.672Z,0
2016-12-28T04:46:24.053Z,0
2016-12-28T04:47:38.344Z,0
2016-12-28T04:48:53.003Z,0
2016-12-28T04:50:07.552Z,0
2016-12-28T04:51:21.649Z,0
2016-12-28T04:52:36.391Z,0
2016-12-28T04:53:50.695Z,0
2016-12-28T04:55:05.671Z,0
2016-12-28T04:56:20.019Z,0
2016-12-28T04:57:34.164Z,0
2016-12-28T04:58:48.565Z,0
2016-12-28T05:00:04.068Z,0
2016-12-28T05:01:18.899Z,0
2016-12-28T05:02:33.434Z,0
2016-12-28T05:03:47.750Z,0
2016-12-28T05:05:03.057Z,0
2016-12-28T05:06:17.318Z,0
2016-12-28T05:07:31.829Z,0
2016-12-28T05:08:46.063Z,0
2016-12-28T05:10:03.076Z,0
2016-12-28T05:11:17.289Z,0
2016-12-28T05:12:31.490Z,0
2016-12-28T05:13:45.874Z,0
2016-12-28T05:15:00.407Z,0
2016-12-28T05:16:14.950Z,0
2016-12-28T05:17:29.248Z,0
2016-12-28T05:18:43.673Z,0
2016-12-28T05:19:58.031Z,0
2016-12-28T05:21:12.156Z,0
2016-12-28T05:22:26.434Z,0
2016-12-28T05:23:41.824Z,0
2016-12-28T05:24:56.049Z,0
2016-12-28T05:26:10.939Z,0
2016-12-28T05:27:25.128Z,0
2016-12-28T05:28:39.218Z,0
2016-12-28T05:29:53.367Z,0
2016-12-28T05:31:07.640Z,0
2016-12-28T05:32:22.388Z,0
2016-12-28T05:33:36.479Z,0
2016-12-28T05:34:50.824Z,0
2016-12-28T05:36:05.305Z,0
2016-12-28T05:37:19.648Z,0
2016-12-28T05:38:34.021Z,0
2016-12-28T05:39:48.295Z,0
2016-12-28T05:41:02.585Z,0
2016-12-28T05:42:16.623Z,0
2016-12-28T05:43:30.739Z,0
2016-12-28T05:44:46.100Z,0
2016-12-28T05:46:00.617Z,0
2016-12-28T05:47:14.916Z,0
2016-12-28T05:48:29.022Z,0
2016-12-28T05:49:44.027Z,0
2016-12-28T05:50:59.435Z,0
2016-12-28T05:52:13.738Z,0
2016-12-28T05:53:27.964Z,0
2016-12-28T05:54:42.717Z,0
2016-12-28T05:55:58.067Z,0
2016-12-28T05:57:12.884Z,0
2016-12-28T05:58:27.687Z,0
2016-12-28T05:59:41.760Z,0
2016-12-28T06:00:56.057Z,0
2016-12-28T06:02:10.711Z,0
2016-12-28T06:03:25.580Z,0
2016-12-28T06:04:39.790Z,0
2016-12-28T06:05:53.893Z,0
2016-12-28T06:07:08.072Z,0
2016-12-28T06:08:22.461Z,0
2016-12-28T06:09:37.210Z,0
2016-12-28T06:10:51.330Z,0
2016-12-28T06:12:05.481Z,0
2016-12-28T06:13:19.583Z,0
2016-12-28T06:14:33.910Z,0
2016-12-28T06:15:48.880Z,0
2016-12-28T06:17:02.965Z,0
2016-12-28T06:18:17.198Z,0
2016-12-28T06:19:31.635Z,0
2016-12-28T06:20:46.063Z,0
2016-12-28T06:22:00.679Z,0
2016-12-28T06:23:15.052Z,0
2016-12-28T06:24:29.433Z,0
2016-12-28T06:25:47.470Z,0
2016-12-28T06:27:07.428Z,0
2016-12-28T06:28:25.611Z,0
2016-12-28T06:29:44.395Z,0
2016-12-28T06:31:02.283Z,0
2016-12-28T06:32:22.095Z,0
2016-12-28T06:33:40.151Z,0
2016-12-28T06:34:54.907Z,0
2016-12-28T06:36:09.620Z,0
2016-12-28T06:37:23.723Z,0
2016-12-28T06:38:38.503Z,0
2016-12-28T06:39:52.853Z,0
2016-12-28T06:41:07.345Z,0
2016-12-28T06:42:22.273Z,0
2016-12-28T06:43:36.834Z,0
2016-12-28T06:44:51.635Z,0
2016-12-28T06:46:06.031Z,0
2016-12-28T06:47:20.864Z,0
2016-12-28T06:48:34.955Z,0
2016-12-28T06:49:49.033Z,0
2016-12-28T06:51:03.142Z,0
2016-12-28T06:52:17.920Z,0
2016-12-28T06:53:32.564Z,0
2016-12-28T06:54:47.072Z,0
2016-12-28T06:56:01.126Z,0
2016-12-28T06:57:15.235Z,0
2016-12-28T06:58:29.531Z,4
2016-12-28T06:59:43.673Z,4
2016-12-28T07:00:58.292Z,0
2016-12-28T07:02:12.721Z,4
2016-12-28T07:03:27.482Z,4
2016-12-28T07:04:41.832Z,4
2016-12-28T07:05:56.204Z,8
2016-12-28T07:07:10.533Z,8
2016-12-28T07:08:24.896Z,8
2016-12-28T07:09:38.968Z,12
2016-12-28T07:10:53.627Z,16
2016-12-28T07:12:07.734Z,16
2016-12-28T07:13:22.843Z,16
2016-12-28T07:14:37.193Z,20
2016-12-28T07:15:51.886Z,20
2016-12-28T07:17:06.222Z,28
2016-12-28T07:21:17.992Z,40
2016-12-28T07:22:33.160Z,44
2016-12-28T07:23:47.317Z,48
2016-12-28T07:25:01.418Z,52
2016-12-28T07:26:15.535Z,52
2016-12-28T07:27:44.344Z,56
2016-12-28T07:28:59.378Z,60
2016-12-28T07:30:13.699Z,72
2016-12-28T07:31:28.823Z,80
2016-12-28T07:32:43.333Z,92
2016-12-28T07:33:57.666Z,108
2016-12-28T07:35:12.111Z,124
2016-12-28T07:36:26.171Z,144
2016-12-28T07:37:40.265Z,160
2016-12-28T07:38:54.505Z,180
2016-12-28T07:40:09.170Z,200
2016-12-28T07:41:23.695Z,208
2016-12-28T07:42:38.148Z,220
2016-12-28T07:43:52.573Z,232
2016-12-28T07:45:06.911Z,244
2016-12-28T07:46:23.473Z,256
2016-12-28T07:47:37.900Z,264
2016-12-28T07:48:52.039Z,268
2016-12-28T07:50:06.130Z,276
2016-12-28T07:51:20.935Z,292
2016-12-28T07:52:35.221Z,304
2016-12-28T07:53:49.289Z,308
2016-12-28T07:55:03.829Z,312
2016-12-28T07:56:18.212Z,312
2016-12-28T07:57:32.742Z,328
2016-12-28T07:58:47.693Z,348
2016-12-28T08:00:02.173Z,368
2016-12-28T08:01:16.372Z,372
2016-12-28T08:02:30.851Z,384
2016-12-28T08:03:45.017Z,396
2016-12-28T08:05:00.788Z,392
2016-12-28T08:06:15.533Z,380
2016-12-28T08:07:29.651Z,384
2016-12-28T08:08:43.791Z,392
2016-12-28T08:09:58.234Z,408
2016-12-28T08:11:12.778Z,412
2016-12-28T08:12:26.932Z,436
2016-12-28T08:13:40.975Z,468
2016-12-28T08:14:55.005Z,496
2016-12-28T08:16:23.868Z,508
2016-12-28T08:17:38.504Z,472
2016-12-28T08:18:52.795Z,460
2016-12-28T08:20:07.166Z,468
2016-12-28T08:21:21.710Z,468
2016-12-28T08:22:35.834Z,476
2016-12-28T08:23:50.382Z,484
2016-12-28T08:25:04.848Z,508
2016-12-28T08:26:19.164Z,544
2016-12-28T08:27:33.499Z,568
2016-12-28T08:28:47.668Z,628
2016-12-28T08:30:02.020Z,700
2016-12-28T08:31:16.455Z,732
2016-12-28T08:32:30.660Z,748
2016-12-28T08:33:45.294Z,728
2016-12-28T08:34:59.651Z,764
2016-12-28T08:36:14.400Z,832
2016-12-28T08:37:28.439Z,848
2016-12-28T08:38:42.477Z,880
2016-12-28T08:40:11.599Z,1000
2016-12-28T08:41:25.971Z,1028
2016-12-28T08:42:40.065Z,1040
2016-12-28T08:43:54.099Z,944
2016-12-28T08:45:08.540Z,908
2016-12-28T08:46:22.642Z,960
2016-12-28T08:47:37.555Z,956
2016-12-28T08:48:51.639Z,956
2016-12-28T08:50:06.122Z,996
2016-12-28T08:51:20.448Z,1064
2016-12-28T08:52:34.500Z,1144
2016-12-28T08:53:49.863Z,1220
2016-12-28T08:55:06.120Z,1288
2016-12-28T08:56:36.273Z,1344
2016-12-28T08:57:53.348Z,1380
2016-12-28T08:59:10.352Z,1412
2016-12-28T09:00:25.364Z,1508
2016-12-28T09:01:39.545Z,1584
2016-12-28T09:02:53.648Z,1592
2016-12-28T09:04:12.156Z,1668
2016-12-28T09:05:27.040Z,1676
2016-12-28T09:06:41.118Z,1596
2016-12-28T09:07:55.520Z,1620
2016-12-28T09:09:10.557Z,1660
2016-12-28T09:10:25.133Z,1804
2016-12-28T09:11:40.236Z,1936
2016-12-28T09:15:22.425Z,1940
2016-12-28T09:16:36.787Z,1964
2016-12-28T09:17:51.178Z,2028
2016-12-28T09:19:05.287Z,1952
2016-12-28T09:20:19.446Z,1792
2016-12-28T09:21:33.856Z,1848
2016-12-28T09:22:48.280Z,1924
2016-12-28T09:24:02.839Z,1932
2016-12-28T09:25:16.989Z,1940
2016-12-28T09:26:46.563Z,1944
2016-12-28T09:28:01.293Z,1788
2016-12-28T09:29:15.665Z,1812
2016-12-28T09:30:30.221Z,1888
2016-12-28T09:31:44.736Z,1996
2016-12-28T09:32:58.901Z,2024
2016-12-28T09:34:13.125Z,1972
2016-12-28T09:35:27.471Z,1944
2016-12-28T09:36:42.305Z,1952
2016-12-28T09:37:57.154Z,2040
2016-12-28T09:39:11.535Z,1912
2016-12-28T09:40:26.073Z,1936
2016-12-28T09:41:40.978Z,1960
2016-12-28T09:42:55.103Z,1964
2016-12-28T09:44:09.628Z,2060
2016-12-28T09:45:24.269Z,1952
2016-12-28T09:46:38.947Z,1896
2016-12-28T09:47:53.630Z,1896
2016-12-28T09:49:08.146Z,1816
2016-12-28T09:50:23.541Z,1864
2016-12-28T09:51:38.048Z,1944
2016-12-28T09:52:52.185Z,1964
2016-12-28T09:54:06.869Z,1996
2016-12-28T09:55:21.143Z,1984
2016-12-28T09:56:35.545Z,1980
2016-12-28T09:57:50.244Z,1996
2016-12-28T09:59:04.839Z,1976
2016-12-28T10:00:19.667Z,1844
2016-12-28T10:01:34.200Z,1872
2016-12-28T10:02:49.120Z,1860
2016-12-28T10:04:03.938Z,1816
2016-12-28T10:05:18.547Z,1804
2016-12-28T10:06:33.844Z,1700
2016-12-28T10:07:48.769Z,1568
2016-12-28T10:09:03.142Z,1584
2016-12-28T10:10:17.435Z,1568
2016-12-28T10:11:33.316Z,1568
2016-12-28T10:12:48.452Z,1584
2016-12-28T10:14:04.058Z,1644
2016-12-28T10:15:18.552Z,1684
2016-12-28T10:16:32.927Z,1716
2016-12-28T10:17:47.783Z,1752
2016-12-28T10:19:02.934Z,1840
2016-12-28T10:20:18.239Z,1944
2016-12-28T10:21:33.139Z,2112
2016-12-28T10:22:50.379Z,2068
2016-12-28T10:24:24.148Z,2260
2016-12-28T10:25:39.757Z,2280
2016-12-28T10:26:55.122Z,2288
2016-12-28T10:28:10.261Z,2388
2016-12-28T10:29:24.623Z,2484
2016-12-28T10:30:40.952Z,2456
2016-12-28T10:31:55.991Z,2320
2016-12-28T10:33:10.738Z,2116
2016-12-28T10:34:25.139Z,2096
2016-12-28T10:35:40.078Z,2028
2016-12-28T10:36:55.221Z,2064
2016-12-28T10:38:09.841Z,2172
2016-12-28T10:39:25.276Z,2344
2016-12-28T10:40:39.615Z,2208
2016-12-28T10:41:54.379Z,2080
2016-12-28T10:43:09.047Z,2004
2016-12-28T10:44:38.222Z,1908
2016-12-28T10:45:53.371Z,1992
2016-12-28T10:47:07.601Z,2200
2016-12-28T10:48:22.170Z,2380
2016-12-28T10:49:36.593Z,2496
2016-12-28T10:50:51.809Z,2572
2016-12-28T10:52:06.713Z,2600
2016-12-28T10:53:20.955Z,2740
2016-12-28T10:54:36.703Z,2728
2016-12-28T10:55:52.038Z,2736
2016-12-28T10:57:06.943Z,2772
2016-12-28T10:58:21.489Z,2836
2016-12-28T10:59:36.164Z,2808
2016-12-28T11:00:51.166Z,2700
2016-12-28T11:02:06.403Z,2700
2016-12-28T11:03:20.557Z,2732
2016-12-28T11:04:35.101Z,2500
2016-12-28T11:05:49.337Z,2108
2016-12-28T11:07:04.374Z,1996
2016-12-28T11:08:18.672Z,2160
2016-12-28T11:09:33.048Z,2448
2016-12-28T11:10:47.180Z,2664
2016-12-28T11:12:01.863Z,2680
2016-12-28T11:13:18.116Z,2800
2016-12-28T11:14:32.739Z,2848
2016-12-28T11:15:47.794Z,2800
2016-12-28T11:17:03.342Z,2804
2016-12-28T11:18:19.731Z,2828
2016-12-28T11:19:34.815Z,2960
2016-12-28T11:20:49.047Z,2920
2016-12-28T11:22:03.547Z,2656
2016-12-28T11:23:19.539Z,2376
2016-12-28T11:24:35.039Z,2224
2016-12-28T11:25:49.630Z,2184
2016-12-28T11:27:04.176Z,2116
2016-12-28T11:28:19.374Z,2032
2016-12-28T11:29:34.015Z,2084
2016-12-28T11:30:49.032Z,2228
2016-12-28T11:32:04.710Z,2204
2016-12-28T11:33:19.744Z,2156
2016-12-28T11:34:33.941Z,2044
2016-12-28T11:35:48.590Z,1944
2016-12-28T11:37:03.073Z,2052
2016-12-28T11:38:18.411Z,2140
2016-12-28T11:39:32.547Z,2148
2016-12-28T11:40:49.565Z,2240
2016-12-28T11:42:04.797Z,2320
2016-12-28T11:43:20.135Z,2312
2016-12-28T11:44:35.346Z,2328
2016-12-28T11:45:50.564Z,2420
2016-12-28T11:47:05.398Z,2528
2016-12-28T11:48:20.567Z,2460
2016-12-28T11:49:35.268Z,2332
2016-12-28T11:50:49.591Z,2168
2016-12-28T11:52:04.400Z,2136
2016-12-28T11:53:19.791Z,2204
2016-12-28T11:54:34.666Z,2180
2016-12-28T11:55:49.093Z,2220
2016-12-28T11:57:03.638Z,2280
2016-12-28T11:58:19.078Z,2372
2016-12-28T11:59:34.054Z,2468
2016-12-28T12:00:48.285Z,2560
2016-12-28T12:02:02.598Z,2588
2016-12-28T12:03:17.449Z,2576
2016-12-28T12:04:32.102Z,2544
2016-12-28T12:05:46.712Z,2536
2016-12-28T12:07:00.994Z,2528
2016-12-28T12:08:15.661Z,2460
2016-12-28T12:09:30.264Z,2388
2016-12-28T12:10:44.935Z,2384
2016-12-28T12:11:59.419Z,2408
2016-12-28T12:13:14.402Z,2408
2016-12-28T12:14:28.898Z,2352
2016-12-28T12:15:43.710Z,2332
2016-12-28T12:16:58.607Z,2368
2016-12-28T12:18:13.528Z,2368
2016-12-28T12:19:28.493Z,2344
2016-12-28T12:20:44.145Z,2360
2016-12-28T12:21:59.412Z,2348
2016-12-28T12:23:14.393Z,2340
2016-12-28T12:24:29.033Z,2280
2016-12-28T12:25:43.871Z,2240
2016-12-28T12:26:59.247Z,2216
2016-12-28T12:28:14.532Z,2276
2016-12-28T12:29:30.007Z,2300
2016-12-28T12:30:46.095Z,2304
2016-12-28T12:32:00.820Z,2312
2016-12-28T12:33:16.241Z,2340
2016-12-28T12:34:31.943Z,2308
2016-12-28T12:35:47.017Z,2300
2016-12-28T12:37:02.559Z,2336
2016-12-28T12:38:17.817Z,2344
2016-12-28T12:39:32.635Z,2236
2016-12-28T12:40:47.890Z,2072
2016-12-28T12:42:02.261Z,2036
2016-12-28T12:43:17.149Z,2112
2016-12-28T12:44:31.423Z,2188
2016-12-28T12:45:46.083Z,2176
2016-12-28T12:47:01.062Z,2032
2016-12-28T12:48:15.204Z,1904
2016-12-28T12:50:59.474Z,1844
2016-12-28T12:52:14.340Z,1944
2016-12-28T12:53:29.238Z,1952
2016-12-28T12:54:44.263Z,1960
2016-12-28T12:55:58.539Z,1916
2016-12-28T12:57:13.732Z,1808
2016-12-28T12:58:31.561Z,1728
2016-12-28T12:59:46.493Z,1704
2016-12-28T13:01:00.849Z,1652
2016-12-28T13:02:15.080Z,1556
2016-12-28T13:03:29.784Z,1472
2016-12-28T13:04:46.061Z,1392
2016-12-28T13:07:30.298Z,1276
2016-12-28T13:08:45.286Z,1212
2016-12-28T13:10:00.124Z,1132
2016-12-28T13:11:15.090Z,1104
2016-12-28T13:12:31.227Z,1136
2016-12-28T13:13:46.465Z,1156
2016-12-28T13:15:02.609Z,1148
2016-12-28T13:16:18.996Z,1136
2016-12-28T13:17:48.447Z,1136
2016-12-28T13:19:19.124Z,1184
2016-12-28T13:20:34.394Z,1256
2016-12-28T13:21:51.407Z,1320
2016-12-28T13:23:05.511Z,1408
2016-12-28T13:24:19.789Z,1420
2016-12-28T13:25:35.287Z,1412
2016-12-28T13:28:49.756Z,1408
2016-12-28T13:30:04.267Z,1332
2016-12-28T13:31:18.578Z,1260
2016-12-28T13:32:33.572Z,1220
2016-12-28T13:33:47.758Z,1172
2016-12-28T13:35:02.617Z,1160
2016-12-28T13:36:18.339Z,1156
2016-12-28T13:37:32.463Z,1152
2016-12-28T13:38:46.968Z,1124
2016-12-28T13:40:01.527Z,1112
2016-12-28T13:41:16.330Z,1176
2016-12-28T13:42:31.363Z,1236
2016-12-28T13:43:46.069Z,1244
2016-12-28T13:45:03.330Z,1240
2016-12-28T13:46:17.580Z,1228
2016-12-28T13:47:32.029Z,1228
2016-12-28T13:48:46.914Z,1152
2016-12-28T13:50:02.804Z,1136
2016-12-28T13:51:17.800Z,1104
2016-12-28T13:52:32.526Z,1052
2016-12-28T13:53:47.106Z,1008
2016-12-28T13:55:01.697Z,976
2016-12-28T13:56:16.482Z,972
2016-12-28T13:57:31.264Z,928
2016-12-28T13:58:46.569Z,872
2016-12-28T14:00:01.673Z,812
2016-12-28T14:01:17.354Z,796
2016-12-28T14:02:31.864Z,812
2016-12-28T14:03:46.473Z,852
2016-12-28T14:05:01.115Z,872
2016-12-28T14:06:15.858Z,880
2016-12-28T14:07:30.304Z,872
2016-12-28T14:08:45.560Z,848
2016-12-28T14:10:00.246Z,840
2016-12-28T14:11:14.366Z,832
2016-12-28T14:12:30.286Z,860
2016-12-28T14:13:44.445Z,860
2016-12-28T14:14:58.672Z,832
2016-12-28T14:16:14.033Z,808
2016-12-28T14:19:01.516Z,732
2016-12-28T14:20:17.259Z,708
2016-12-28T14:21:31.819Z,680
2016-12-28T14:22:46.644Z,656
2016-12-28T14:24:01.400Z,628
2016-12-28T14:25:16.296Z,596
2016-12-28T14:26:31.130Z,572
2016-12-28T14:27:45.984Z,572
2016-12-28T14:29:01.532Z,580
2016-12-28T14:30:16.639Z,584
2016-12-28T14:31:31.401Z,580
2016-12-28T14:32:45.543Z,564
2016-12-28T14:34:00.884Z,536
2016-12-28T14:35:14.942Z,516
2016-12-28T14:36:29.543Z,496
2016-12-28T14:37:44.420Z,464
2016-12-28T14:38:58.843Z,436
2016-12-28T14:40:13.577Z,412
2016-12-28T14:41:27.788Z,396
2016-12-28T14:42:42.333Z,396
2016-12-28T14:43:57.085Z,396
2016-12-28T14:45:11.786Z,380
2016-12-28T14:46:25.949Z,368
2016-12-28T14:47:40.631Z,360
2016-12-28T14:48:54.833Z,352
2016-12-28T14:50:09.393Z,348
2016-12-28T14:51:23.876Z,332
2016-12-28T14:52:38.505Z,320
2016-12-28T14:53:53.381Z,312
2016-12-28T14:55:07.837Z,300
2016-12-28T14:56:22.374Z,280
2016-12-28T14:57:37.284Z,260
2016-12-28T14:58:51.890Z,240
2016-12-28T15:00:06.861Z,224
2016-12-28T15:01:21.555Z,212
2016-12-28T15:02:36.383Z,192
2016-12-28T15:03:51.713Z,180
2016-12-28T15:05:20.892Z,160
2016-12-28T15:06:35.766Z,152
2016-12-28T15:07:50.204Z,152
2016-12-28T15:09:05.284Z,152
2016-12-28T15:10:20.645Z,148
2016-12-28T15:11:35.175Z,144
2016-12-28T15:12:50.086Z,140
2016-12-28T15:14:04.904Z,128
2016-12-28T15:15:20.277Z,120
2016-12-28T15:16:34.974Z,112
2016-12-28T15:17:49.504Z,104
2016-12-28T15:19:03.597Z,100
2016-12-28T15:20:18.198Z,96
2016-12-28T15:21:33.656Z,88
2016-12-28T15:22:48.213Z,84
2016-12-28T15:24:02.574Z,80
2016-12-28T15:25:17.814Z,72
2016-12-28T15:26:32.572Z,72
2016-12-28T15:27:48.157Z,64
2016-12-28T15:29:02.801Z,64
2016-12-28T15:30:17.905Z,60
2016-12-28T15:31:33.084Z,56
2016-12-28T15:32:48.329Z,52
2016-12-28T15:34:03.182Z,48
2016-12-28T15:35:20.389Z,40
2016-12-28T15:36:34.596Z,40
2016-12-28T15:37:49.073Z,36
2016-12-28T15:39:04.499Z,32
2016-12-28T15:40:19.114Z,28
2016-12-28T15:41:33.782Z,24
2016-12-28T15:42:48.199Z,20
2016-12-28T15:44:02.761Z,20
2016-12-28T15:45:17.420Z,16
2016-12-28T15:46:31.988Z,12
2016-12-28T15:47:46.127Z,8
2016-12-28T15:49:00.783Z,8
2016-12-28T15:50:15.047Z,8
2016-12-28T15:52:59.505Z,4
2016-12-28T15:54:13.671Z,4
2016-12-28T15:55:28.324Z,4
2016-12-28T15:56:42.984Z,0
2016-12-28T15:57:57.915Z,4
2016-12-28T15:59:12.174Z,4
2016-12-28T16:00:26.282Z,0
2016-12-28T16:01:41.127Z,0
2016-12-28T16:02:55.453Z,0
2016-12-28T16:04:10.238Z,0
2016-12-28T16:05:24.864Z,0
2016-12-28T16:06:39.704Z,0
2016-12-28T16:07:54.375Z,0
2016-12-28T16:09:10.046Z,0
2016-12-28T16:10:25.385Z,0
2016-12-28T16:11:39.953Z,0
2016-12-28T16:12:54.134Z,0
2016-12-28T16:14:08.206Z,0
2016-12-28T16:15:22.687Z,0
2016-12-28T16:16:37.387Z,0
2016-12-28T16:17:52.388Z,0
2016-12-28T16:19:07.410Z,0
2016-12-28T16:20:22.033Z,0
2016-12-28T16:21:36.954Z,0
2016-12-28T16:22:51.926Z,0
2016-12-28T16:24:06.496Z,0
2016-12-28T16:25:21.335Z,0
2016-12-28T16:26:35.979Z,0
2016-12-28T16:27:50.277Z,0
2016-12-28T16:29:04.958Z,0
2016-12-28T16:30:19.050Z,0
2016-12-28T16:31:33.416Z,0
2016-12-28T16:32:47.647Z,0
2016-12-28T16:34:02.713Z,0
2016-12-28T16:35:17.774Z,0
2016-12-28T16:36:33.015Z,0
2016-12-28T16:37:47.640Z,0
2016-12-28T16:39:02.572Z,0
2016-12-28T16:40:18.358Z,0
2016-12-28T16:41:33.554Z,0
2016-12-28T16:42:47.704Z,0
2016-12-28T16:44:01.752Z,0
2016-12-28T16:45:16.167Z,0
2016-12-28T16:46:30.971Z,0
2016-12-28T16:47:45.645Z,0
2016-12-28T16:48:59.737Z,0
2016-12-28T16:50:14.927Z,0
2016-12-28T16:51:29.998Z,0
2016-12-28T16:52:46.802Z,0
2016-12-28T16:54:02.315Z,0
2016-12-28T16:55:16.438Z,0
2016-12-28T16:56:30.588Z,0
2016-12-28T16:57:45.041Z,0
2016-12-28T16:58:59.478Z,0
2016-12-28T17:00:14.052Z,0
2016-12-28T17:01:29.657Z,0
2016-12-28T17:02:44.795Z,0
2016-12-28T17:03:59.649Z,0
2016-12-28T17:05:14.027Z,0
2016-12-28T17:06:28.876Z,0
2016-12-28T17:07:43.004Z,0
2016-12-28T17:08:57.657Z,0
2016-12-28T17:10:12.508Z,0
2016-12-28T17:11:27.579Z,0
2016-12-28T17:12:43.119Z,0
2016-12-28T17:13:57.191Z,0
2016-12-28T17:46:32.577Z,0
2016-12-28T17:48:06.022Z,0
2016-12-28T17:49:36.725Z,0
2016-12-28T17:51:10.430Z,0
2016-12-28T17:52:44.239Z,0
2016-12-28T17:54:18.045Z,0
2016-12-28T17:55:51.519Z,0
2016-12-28T17:57:24.791Z,0
2016-12-28T17:58:59.456Z,0
2016-12-28T18:00:28.704Z,0
2016-12-28T18:02:02.528Z,0
2016-12-28T18:04:03.930Z,0
2016-12-28T18:05:38.543Z,0
2016-12-28T18:07:12.378Z,0
2016-12-28T18:08:46.602Z,0
2016-12-28T18:10:21.538Z,0
2016-12-28T18:12:14.342Z,0
2016-12-28T18:13:47.843Z,0
2016-12-28T18:15:21.612Z,0
2016-12-28T18:16:58.688Z,0
2016-12-28T18:18:32.807Z,0
2016-12-28T18:20:07.152Z,0
2016-12-28T18:21:41.815Z,0
2016-12-28T18:23:15.974Z,0
2016-12-28T18:25:09.037Z,0
2016-12-28T18:26:43.469Z,0
2016-12-28T18:28:18.245Z,0
2016-12-28T18:29:52.300Z,0
2016-12-28T18:31:26.781Z,0
2016-12-28T18:33:00.125Z,0
2016-12-28T18:34:34.296Z,0
2016-12-28T18:36:08.326Z,0
2016-12-28T18:37:41.948Z,0
2016-12-28T18:39:11.824Z,0
2016-12-28T18:40:45.335Z,0